createdAt,value
2018-03-24T00:00:29.402Z,20.8
2018-03-24T00:01:19.687Z,20.8
2018-03-24T00:02:09.712Z,20.8
2018-03-24T00:02:59.969Z,20.8
2018-03-24T00:03:50.538Z,20.8
2018-03-24T00:04:40.649Z,20.8
2018-03-24T00:05:30.662Z,20.8
2018-03-24T00:06:20.973Z,20.8
2018-03-24T00:07:11.229Z,20.9
2018-03-24T00:08:01.336Z,20.8
2018-03-24T00:08:51.101Z,20.8
2018-03-24T00:09:41.115Z,20.8
2018-03-24T00:10:31.465Z,20.8
2018-03-24T00:11:21.536Z,20.8
2018-03-24T00:12:11.327Z,20.8
2018-03-24T00:13:01.103Z,20.8
2018-03-24T00:13:51.428Z,20.8
2018-03-24T00:14:42.100Z,20.8
2018-03-24T00:15:31.186Z,20.8
2018-03-24T00:16:21.595Z,20.9
2018-03-24T00:17:11.099Z,20.8
2018-03-24T00:18:01.076Z,20.8
2018-03-24T00:18:50.808Z,20.9
2018-03-24T00:19:40.590Z,20.8
2018-03-24T00:20:30.756Z,20.9
2018-03-24T00:21:21.274Z,20.9
2018-03-24T00:22:11.146Z,20.8
2018-03-24T00:23:01.573Z,20.8
2018-03-24T00:23:51.980Z,20.8
2018-03-24T00:24:41.690Z,20.8
2018-03-24T00:25:31.743Z,20.8
2018-03-24T00:26:21.171Z,20.8
2018-03-24T00:27:12.400Z,20.8
2018-03-24T00:28:01.988Z,20.8
2018-03-24T00:28:52.318Z,20.9
2018-03-24T00:29:42.130Z,20.8
2018-03-24T00:30:32.173Z,20.8
2018-03-24T00:31:21.127Z,20.9
2018-03-24T00:32:11.689Z,20.9
2018-03-24T00:33:01.996Z,20.9
2018-03-24T00:33:51.192Z,20.8
2018-03-24T00:34:42.878Z,20.9
2018-03-24T00:35:31.638Z,20.9
2018-03-24T00:36:22.231Z,20.9
2018-03-24T00:37:11.846Z,20.9
2018-03-24T00:38:02.339Z,20.9
2018-03-24T00:38:52.343Z,20.9
2018-03-24T00:39:42.455Z,20.9
2018-03-24T00:40:31.933Z,20.9
2018-03-24T00:41:22.775Z,20.9
2018-03-24T00:42:12.853Z,20.9
2018-03-24T00:43:02.805Z,20.9
2018-03-24T00:43:52.390Z,20.9
2018-03-24T00:44:41.999Z,20.9
2018-03-24T00:45:33.018Z,20.9
2018-03-24T00:46:23.489Z,20.9
2018-03-24T00:47:12.957Z,20.9
2018-03-24T00:48:03.261Z,20.9
2018-03-24T00:48:53.367Z,20.9
2018-03-24T00:49:42.757Z,20.9
2018-03-24T00:50:33.453Z,20.9
2018-03-24T00:51:22.730Z,20.9
2018-03-24T00:52:12.449Z,20.9
2018-03-24T00:53:03.583Z,20.9
2018-03-24T00:53:53.894Z,20.9
2018-03-24T00:54:43.636Z,20.9
2018-03-24T00:55:33.229Z,20.9
2018-03-24T00:56:23.407Z,20.9
2018-03-24T00:57:13.242Z,20.9
2018-03-24T00:58:03.181Z,20.9
2018-03-24T00:58:54.385Z,20.9
2018-03-24T00:59:44.313Z,20.9
2018-03-24T01:00:33.498Z,20.9
2018-03-24T01:01:23.251Z,20.9
2018-03-24T01:02:12.468Z,20.9
2018-03-24T01:03:04.883Z,20.9
2018-03-24T01:03:54.566Z,20.9
2018-03-24T01:04:44.511Z,20.9
2018-03-24T01:05:33.950Z,20.9
2018-03-24T01:06:24.791Z,20.9
2018-03-24T01:07:13.898Z,20.9
2018-03-24T01:08:03.593Z,20.9
2018-03-24T01:08:55.085Z,20.9
2018-03-24T01:09:44.373Z,20.9
2018-03-24T01:10:33.990Z,20.9
2018-03-24T01:11:23.888Z,20.9
2018-03-24T01:12:13.630Z,20.9
2018-03-24T01:13:04.834Z,21
2018-03-24T01:13:54.197Z,20.9
2018-03-24T01:14:43.940Z,20.9
2018-03-24T01:15:34.601Z,21
2018-03-24T01:16:24.660Z,21
2018-03-24T01:17:14.487Z,21
2018-03-24T01:18:05.337Z,21
2018-03-24T01:18:55.001Z,21
2018-03-24T01:19:45.233Z,21
2018-03-24T01:20:36.532Z,21
2018-03-24T01:21:26.379Z,21
2018-03-24T01:22:16.377Z,21
2018-03-24T01:23:05.847Z,21
2018-03-24T01:23:56.490Z,21
2018-03-24T01:24:46.550Z,21
2018-03-24T01:25:36.321Z,21
2018-03-24T01:26:26.665Z,21
2018-03-24T01:27:16.179Z,21
2018-03-24T01:28:06.764Z,21
2018-03-24T01:28:56.849Z,21
2018-03-24T01:29:46.328Z,21
2018-03-24T01:30:36.364Z,21
2018-03-24T01:31:27.020Z,21.1
2018-03-24T01:32:17.130Z,21
2018-03-24T01:33:06.863Z,21
2018-03-24T01:33:56.901Z,21
2018-03-24T01:34:47.537Z,21.1
2018-03-24T01:35:37.321Z,21
2018-03-24T01:36:27.092Z,21.1
2018-03-24T01:37:17.114Z,21.1
2018-03-24T01:38:07.156Z,21.1
2018-03-24T01:38:56.402Z,21.1
2018-03-24T01:39:46.923Z,21.1
2018-03-24T01:40:36.601Z,21.1
2018-03-24T01:41:26.452Z,21.1
2018-03-24T01:42:16.936Z,21.1
2018-03-24T01:43:06.138Z,21.1
2018-03-24T01:43:56.824Z,21.1
2018-03-24T01:44:47.176Z,21.1
2018-03-24T01:45:37.547Z,21.1
2018-03-24T01:46:27.533Z,21.1
2018-03-24T01:47:17.563Z,21.1
2018-03-24T01:48:07.649Z,21.1
2018-03-24T01:48:57.351Z,21.1
2018-03-24T01:49:47.534Z,21.1
2018-03-24T01:50:36.641Z,21.1
2018-03-24T01:51:27.351Z,21.1
2018-03-24T01:53:07.586Z,21.1
2018-03-24T02:03:08.040Z,21.2
2018-03-24T02:04:48.165Z,21.2
2018-03-24T02:06:28.192Z,21.2
2018-03-24T02:07:18.149Z,21.2
2018-03-24T02:08:08.843Z,21.2
2018-03-24T02:08:58.332Z,21.2
2018-03-24T02:09:48.304Z,21.2
2018-03-24T02:10:38.880Z,21.2
2018-03-24T02:11:28.465Z,21.2
2018-03-24T02:12:18.344Z,21.2
2018-03-24T02:13:08.349Z,21.2
2018-03-24T02:13:59.284Z,21.2
2018-03-24T02:14:48.069Z,21.2
2018-03-24T02:15:38.798Z,21.2
2018-03-24T02:16:29.566Z,21.2
2018-03-24T02:17:18.718Z,21.2
2018-03-24T02:18:09.072Z,21.2
2018-03-24T02:18:58.732Z,21.2
2018-03-24T02:19:48.737Z,21.3
2018-03-24T02:20:39.172Z,21.3
2018-03-24T02:21:29.088Z,21.3
2018-03-24T02:22:18.584Z,21.3
2018-03-24T02:23:10.283Z,21.3
2018-03-24T02:24:00.302Z,21.3
2018-03-24T02:24:50.368Z,21.3
2018-03-24T02:25:40.130Z,21.3
2018-03-24T02:26:31.061Z,21.2
2018-03-24T02:27:21.093Z,21.3
2018-03-24T02:28:10.598Z,21.3
2018-03-24T02:29:00.630Z,21.3
2018-03-24T02:29:50.414Z,21.3
2018-03-24T02:30:39.960Z,21.3
2018-03-24T02:31:30.365Z,21.3
2018-03-24T02:32:19.756Z,21.3
2018-03-24T02:33:10.416Z,21.2
2018-03-24T02:33:59.281Z,21.2
2018-03-24T02:34:50.813Z,21.2
2018-03-24T02:35:40.664Z,21.2
2018-03-24T02:36:29.860Z,21.2
2018-03-24T02:37:20.393Z,21.2
2018-03-24T02:38:10.218Z,21.3
2018-03-24T02:39:00.952Z,21.3
2018-03-24T02:39:49.188Z,21.3
2018-03-24T02:40:40.748Z,21.3
2018-03-24T02:41:30.679Z,21.2
2018-03-24T02:42:21.108Z,21.3
2018-03-24T02:43:10.999Z,21.3
2018-03-24T02:44:01.250Z,21.3
2018-03-24T02:44:50.639Z,21.3
2018-03-24T02:45:41.617Z,21.3
2018-03-24T02:46:30.600Z,21.3
2018-03-24T02:47:20.900Z,21.3
2018-03-24T02:48:11.033Z,21.3
2018-03-24T02:49:01.288Z,21.3
2018-03-24T02:49:50.453Z,21.3
2018-03-24T02:50:41.693Z,21.3
2018-03-24T02:51:31.462Z,21.3
2018-03-24T02:52:21.511Z,21.3
2018-03-24T02:53:11.669Z,21.3
2018-03-24T02:54:01.894Z,21.3
2018-03-24T02:54:51.715Z,21.3
2018-03-24T02:55:41.171Z,21.3
2018-03-24T02:56:32.313Z,21.3
2018-03-24T02:57:21.159Z,21.3
2018-03-24T02:58:12.139Z,21.3
2018-03-24T02:59:02.321Z,21.3
2018-03-24T02:59:52.145Z,21.3
2018-03-24T03:00:42.568Z,21.3
2018-03-24T03:01:31.350Z,21.3
2018-03-24T03:02:22.449Z,21.3
2018-03-24T03:03:12.266Z,21.3
2018-03-24T03:04:02.651Z,21.3
2018-03-24T03:04:52.631Z,21.3
2018-03-24T03:05:43.276Z,21.3
2018-03-24T03:06:33.310Z,21.3
2018-03-24T03:07:23.121Z,21.3
2018-03-24T03:08:13.124Z,21.3
2018-03-24T03:09:03.519Z,21.3
2018-03-24T03:09:53.552Z,21.3
2018-03-24T03:10:43.568Z,21.3
2018-03-24T03:11:33.093Z,21.3
2018-03-24T03:12:23.433Z,21.3
2018-03-24T03:13:13.386Z,21.3
2018-03-24T03:14:03.238Z,21.4
2018-03-24T03:14:53.892Z,21.4
2018-03-24T03:15:43.092Z,21.3
2018-03-24T03:16:33.942Z,21.3
2018-03-24T03:17:23.773Z,21.4
2018-03-24T03:18:14.080Z,21.4
2018-03-24T03:19:03.832Z,21.3
2018-03-24T03:19:52.278Z,21.3
2018-03-24T03:20:43.224Z,21.4
2018-03-24T03:21:32.900Z,21.4
2018-03-24T03:22:22.360Z,21.4
2018-03-24T03:23:13.326Z,21.4
2018-03-24T03:24:04.135Z,21.4
2018-03-24T03:24:53.508Z,21.4
2018-03-24T03:25:44.325Z,21.4
2018-03-24T03:26:33.500Z,21.4
2018-03-24T03:27:23.108Z,21.4
2018-03-24T03:28:13.967Z,21.4
2018-03-24T03:29:03.325Z,21.4
2018-03-24T03:29:54.067Z,21.4
2018-03-24T03:30:43.376Z,21.4
2018-03-24T03:31:34.960Z,21.4
2018-03-24T03:32:23.855Z,21.4
2018-03-24T03:33:13.739Z,21.4
2018-03-24T03:34:04.168Z,21.4
2018-03-24T03:34:54.205Z,21.4
2018-03-24T03:35:43.744Z,21.4
2018-03-24T03:36:34.815Z,21.4
2018-03-24T03:37:24.384Z,21.4
2018-03-24T03:38:14.434Z,21.4
2018-03-24T03:39:04.107Z,21.4
2018-03-24T03:39:54.548Z,21.4
2018-03-24T03:40:44.897Z,21.4
2018-03-24T03:41:35.424Z,21.4
2018-03-24T03:42:24.780Z,21.4
2018-03-24T03:43:13.219Z,21.4
2018-03-24T03:44:03.749Z,21.4
2018-03-24T03:44:55.646Z,21.4
2018-03-24T03:45:45.313Z,21.4
2018-03-24T03:46:35.220Z,21.4
2018-03-24T03:47:26.385Z,21.4
2018-03-24T03:48:15.557Z,21.4
2018-03-24T03:49:05.296Z,21.4
2018-03-24T03:49:55.843Z,21.4
2018-03-24T03:50:46.076Z,21.4
2018-03-24T03:51:35.292Z,21.4
2018-03-24T03:52:24.907Z,21.4
2018-03-24T03:53:16.338Z,21.4
2018-03-24T03:54:05.896Z,21.4
2018-03-24T03:54:55.501Z,21.4
2018-03-24T03:55:44.852Z,21.5
2018-03-24T03:56:35.513Z,21.5
2018-03-24T03:57:26.261Z,21.4
2018-03-24T03:58:16.012Z,21.4
2018-03-24T03:59:06.262Z,21.4
2018-03-24T03:59:56.145Z,21.4
2018-03-24T04:00:45.769Z,21.4
2018-03-24T04:01:37.024Z,21.4
2018-03-24T04:02:25.607Z,21.4
2018-03-24T04:03:16.158Z,21.4
2018-03-24T04:04:06.591Z,21.5
2018-03-24T04:04:55.905Z,21.5
2018-03-24T04:05:45.526Z,21.5
2018-03-24T04:06:36.711Z,21.5
2018-03-24T04:07:26.125Z,21.5
2018-03-24T04:08:16.424Z,21.5
2018-03-24T04:09:07.249Z,21.5
2018-03-24T04:09:56.589Z,21.5
2018-03-24T04:10:47.726Z,21.5
2018-03-24T04:11:36.929Z,21.5
2018-03-24T04:12:26.797Z,21.5
2018-03-24T04:13:17.391Z,21.5
2018-03-24T04:14:06.300Z,21.5
2018-03-24T04:14:56.340Z,21.5
2018-03-24T04:15:47.391Z,21.5
2018-03-24T04:16:37.377Z,21.5
2018-03-24T04:17:27.392Z,21.5
2018-03-24T04:18:16.780Z,21.5
2018-03-24T04:19:08.013Z,21.5
2018-03-24T04:19:56.899Z,21.5
2018-03-24T04:20:46.752Z,21.6
2018-03-24T04:21:37.571Z,21.5
2018-03-24T04:22:27.840Z,21.5
2018-03-24T04:23:18.284Z,21.5
2018-03-24T04:24:07.283Z,21.6
2018-03-24T04:24:58.046Z,21.6
2018-03-24T04:25:47.820Z,21.6
2018-03-24T04:26:38.193Z,21.6
2018-03-24T04:27:27.505Z,21.6
2018-03-24T04:28:17.650Z,21.6
2018-03-24T04:29:08.694Z,21.5
2018-03-24T04:29:58.072Z,21.5
2018-03-24T04:30:47.502Z,21.6
2018-03-24T04:31:38.508Z,21.6
2018-03-24T04:32:28.567Z,21.6
2018-03-24T04:33:18.996Z,21.6
2018-03-24T04:34:08.469Z,21.6
2018-03-24T04:34:58.116Z,21.6
2018-03-24T04:35:48.138Z,21.6
2018-03-24T04:36:38.512Z,21.6
2018-03-24T04:37:28.279Z,21.6
2018-03-24T04:38:19.499Z,21.6
2018-03-24T04:39:09.524Z,21.6
2018-03-24T04:39:59.871Z,21.6
2018-03-24T04:40:50.211Z,21.6
2018-03-24T04:41:40.263Z,21.6
2018-03-24T04:42:30.056Z,21.6
2018-03-24T04:43:20.415Z,21.6
2018-03-24T04:44:10.446Z,21.6
2018-03-24T04:45:00.520Z,21.6
2018-03-24T04:45:49.962Z,21.6
2018-03-24T04:46:40.587Z,21.6
2018-03-24T04:47:30.434Z,21.6
2018-03-24T04:48:20.763Z,21.6
2018-03-24T04:49:10.193Z,21.6
2018-03-24T04:50:00.255Z,21.6
2018-03-24T04:50:50.886Z,21.6
2018-03-24T04:51:41.012Z,21.6
2018-03-24T04:52:30.734Z,21.6
2018-03-24T04:53:21.097Z,21.6
2018-03-24T04:54:10.855Z,21.6
2018-03-24T04:55:00.902Z,21.6
2018-03-24T04:55:50.653Z,21.6
2018-03-24T04:56:40.707Z,21.6
2018-03-24T04:57:31.048Z,21.6
2018-03-24T04:58:20.847Z,21.6
2018-03-24T04:59:10.635Z,21.6
2018-03-24T05:00:01.250Z,21.6
2018-03-24T05:00:50.885Z,21.6
2018-03-24T05:01:40.563Z,21.6
2018-03-24T05:02:31.147Z,21.6
2018-03-24T05:03:21.495Z,21.6
2018-03-24T05:04:10.718Z,21.6
2018-03-24T05:05:01.613Z,21.6
2018-03-24T05:05:51.113Z,21.6
2018-03-24T05:06:41.209Z,21.6
2018-03-24T05:07:31.775Z,21.6
2018-03-24T05:08:21.543Z,21.7
2018-03-24T05:09:11.872Z,21.6
2018-03-24T05:10:01.950Z,21.6
2018-03-24T05:10:51.159Z,21.7
2018-03-24T05:11:42.297Z,21.7
2018-03-24T05:12:31.334Z,21.7
2018-03-24T05:13:21.392Z,21.7
2018-03-24T05:14:12.207Z,21.7
2018-03-24T05:15:01.487Z,21.7
2018-03-24T05:15:50.983Z,21.7
2018-03-24T05:16:41.548Z,21.7
2018-03-24T05:17:31.732Z,21.7
2018-03-24T05:18:21.731Z,21.7
2018-03-24T05:19:11.514Z,21.7
2018-03-24T05:20:01.806Z,21.7
2018-03-24T05:20:52.192Z,21.7
2018-03-24T05:21:42.267Z,21.7
2018-03-24T05:22:32.284Z,21.8
2018-03-24T05:23:21.771Z,21.8
2018-03-24T05:24:12.691Z,21.8
2018-03-24T05:25:02.198Z,21.7
2018-03-24T05:25:52.694Z,21.8
2018-03-24T05:26:42.803Z,21.8
2018-03-24T05:27:32.638Z,21.8
2018-03-24T05:28:22.700Z,21.8
2018-03-24T05:29:11.963Z,21.8
2018-03-24T05:30:02.775Z,21.8
2018-03-24T05:30:53.340Z,21.8
2018-03-24T05:31:42.811Z,21.8
2018-03-24T05:32:32.877Z,21.9
2018-03-24T05:33:23.536Z,21.9
2018-03-24T05:34:13.291Z,21.9
2018-03-24T05:35:03.079Z,21.9
2018-03-24T05:35:53.728Z,21.9
2018-03-24T05:36:43.186Z,21.9
2018-03-24T05:37:34.111Z,21.9
2018-03-24T05:38:23.080Z,21.9
2018-03-24T05:39:14.030Z,21.9
2018-03-24T05:40:03.698Z,21.9
2018-03-24T05:40:53.219Z,21.9
2018-03-24T05:41:43.798Z,22
2018-03-24T05:42:33.395Z,22
2018-03-24T05:43:23.345Z,22
2018-03-24T05:44:14.308Z,22
2018-03-24T05:45:04.377Z,22
2018-03-24T05:45:53.787Z,22
2018-03-24T05:46:43.590Z,22
2018-03-24T05:47:34.470Z,22
2018-03-24T05:48:24.572Z,22
2018-03-24T05:49:14.322Z,22.1
2018-03-24T05:50:04.100Z,22.1
2018-03-24T05:50:54.424Z,22.1
2018-03-24T05:51:44.227Z,22.1
2018-03-24T05:52:34.301Z,22.1
2018-03-24T05:53:24.334Z,22.1
2018-03-24T05:54:14.655Z,22.1
2018-03-24T05:55:05.016Z,22.1
2018-03-24T05:55:54.048Z,22.1
2018-03-24T05:56:44.174Z,22.2
2018-03-24T05:57:35.173Z,22.2
2018-03-24T05:58:24.923Z,22.2
2018-03-24T05:59:15.534Z,22.2
2018-03-24T06:00:05.384Z,22.2
2018-03-24T06:00:55.662Z,22.2
2018-03-24T06:01:45.721Z,22.3
2018-03-24T06:02:35.832Z,22.3
2018-03-24T06:03:25.647Z,22.3
2018-03-24T06:04:15.633Z,22.3
2018-03-24T06:05:05.675Z,22.3
2018-03-24T06:05:55.720Z,22.3
2018-03-24T06:06:46.053Z,22.3
2018-03-24T06:07:35.548Z,22.3
2018-03-24T06:08:25.902Z,22.3
2018-03-24T06:09:15.934Z,22.3
2018-03-24T06:10:05.759Z,22.3
2018-03-24T06:10:55.769Z,22.3
2018-03-24T06:11:46.173Z,22.3
2018-03-24T06:12:36.211Z,22.3
2018-03-24T06:13:26.240Z,22.3
2018-03-24T06:14:16.325Z,22.3
2018-03-24T06:15:06.643Z,22.3
2018-03-24T06:15:56.448Z,22.3
2018-03-24T06:16:45.864Z,22.4
2018-03-24T06:17:36.517Z,22.3
2018-03-24T06:18:26.867Z,22.3
2018-03-24T06:19:16.932Z,22.3
2018-03-24T06:20:06.394Z,22.3
2018-03-24T06:20:57.013Z,22.3
2018-03-24T06:21:46.924Z,22.3
2018-03-24T06:22:36.878Z,22.3
2018-03-24T06:23:27.186Z,22.3
2018-03-24T06:24:17.002Z,22.4
2018-03-24T06:25:07.321Z,22.4
2018-03-24T06:25:57.150Z,22.4
2018-03-24T06:26:47.168Z,22.4
2018-03-24T06:27:37.578Z,22.4
2018-03-24T06:28:27.546Z,22.4
2018-03-24T06:29:17.628Z,22.4
2018-03-24T06:30:07.356Z,22.4
2018-03-24T06:30:57.709Z,22.4
2018-03-24T06:31:47.493Z,22.4
2018-03-24T06:32:37.263Z,22.4
2018-03-24T06:33:27.896Z,22.4
2018-03-24T06:34:17.145Z,22.4
2018-03-24T06:35:07.473Z,22.4
2018-03-24T06:35:57.538Z,22.4
2018-03-24T06:36:47.847Z,22.4
2018-03-24T06:37:38.136Z,22.4
2018-03-24T06:38:28.309Z,22.4
2018-03-24T06:39:17.443Z,22.4
2018-03-24T06:40:08.074Z,22.4
2018-03-24T06:40:58.325Z,22.4
2018-03-24T06:41:48.153Z,22.4
2018-03-24T06:42:38.045Z,22.4
2018-03-24T06:43:28.282Z,22.4
2018-03-24T06:44:18.161Z,22.4
2018-03-24T06:45:08.407Z,22.4
2018-03-24T06:45:58.749Z,22.4
2018-03-24T06:46:47.768Z,22.4
2018-03-24T06:47:38.608Z,22.4
2018-03-24T06:48:28.639Z,22.4
2018-03-24T06:49:18.752Z,22.4
2018-03-24T06:50:09.022Z,22.4
2018-03-24T06:50:58.863Z,22.4
2018-03-24T06:51:48.271Z,22.4
2018-03-24T06:52:38.633Z,22.4
2018-03-24T06:53:29.247Z,22.4
2018-03-24T06:54:18.597Z,22.4
2018-03-24T06:55:08.826Z,22.4
2018-03-24T06:55:59.153Z,22.4
2018-03-24T06:56:49.196Z,22.4
2018-03-24T06:57:39.258Z,22.4
2018-03-24T06:58:29.289Z,22.4
2018-03-24T06:59:19.445Z,22.4
2018-03-24T07:00:09.714Z,22.4
2018-03-24T07:00:59.302Z,22.4
2018-03-24T07:01:49.304Z,22.4
2018-03-24T07:02:39.559Z,22.4
2018-03-24T07:03:29.376Z,22.4
2018-03-24T07:04:19.701Z,22.4
2018-03-24T07:05:09.741Z,22.4
2018-03-24T07:05:59.815Z,22.4
2018-03-24T07:06:49.889Z,22.4
2018-03-24T07:07:40.333Z,22.3
2018-03-24T07:08:30.251Z,22.4
2018-03-24T07:09:20.052Z,22.4
2018-03-24T07:10:10.393Z,22.3
2018-03-24T07:11:00.411Z,22.3
2018-03-24T07:11:50.203Z,22.3
2018-03-24T07:12:40.032Z,22.3
2018-03-24T07:13:30.380Z,22.3
2018-03-24T07:14:20.079Z,22.3
2018-03-24T07:15:10.238Z,22.3
2018-03-24T07:16:00.498Z,22.3
2018-03-24T07:16:50.277Z,22.3
2018-03-24T07:17:40.635Z,22.3
2018-03-24T07:18:30.651Z,22.3
2018-03-24T07:19:20.718Z,22.3
2018-03-24T07:20:10.783Z,22.3
2018-03-24T07:21:01.083Z,22.3
2018-03-24T07:21:50.883Z,22.3
2018-03-24T07:22:40.678Z,22.3
2018-03-24T07:23:31.256Z,22.3
2018-03-24T07:24:21.293Z,22.3
2018-03-24T07:25:11.400Z,22.3
2018-03-24T07:26:01.515Z,22.3
2018-03-24T07:26:51.255Z,22.3
2018-03-24T07:27:41.660Z,22.3
2018-03-24T07:28:31.688Z,22.3
2018-03-24T07:29:21.129Z,22.3
2018-03-24T07:30:11.504Z,22.3
2018-03-24T07:31:01.036Z,22.3
2018-03-24T07:31:51.591Z,22.3
2018-03-24T07:32:41.948Z,22.3
2018-03-24T07:33:31.681Z,22.3
2018-03-24T07:34:21.770Z,22.3
2018-03-24T07:35:11.540Z,22.3
2018-03-24T07:36:02.143Z,22.3
2018-03-24T07:36:51.498Z,22.3
2018-03-24T07:37:41.263Z,22.3
2018-03-24T07:38:31.584Z,22.3
2018-03-24T07:39:22.443Z,22.3
2018-03-24T07:40:12.409Z,22.2
2018-03-24T07:41:01.632Z,22.3
2018-03-24T07:41:51.944Z,22.2
2018-03-24T07:42:42.010Z,22.3
2018-03-24T07:43:32.359Z,22.3
2018-03-24T07:44:22.428Z,22.3
2018-03-24T07:45:12.554Z,22.2
2018-03-24T07:46:02.551Z,22.3
2018-03-24T07:46:52.675Z,22.2
2018-03-24T07:47:42.939Z,22.3
2018-03-24T07:48:32.145Z,22.3
2018-03-24T07:49:22.842Z,22.3
2018-03-24T07:50:12.549Z,22.3
2018-03-24T07:51:03.224Z,22.3
2018-03-24T07:51:52.902Z,22.3
2018-03-24T07:52:42.477Z,22.3
2018-03-24T07:53:33.309Z,22.3
2018-03-24T07:54:23.068Z,22.3
2018-03-24T07:55:13.156Z,22.3
2018-03-24T07:56:03.247Z,22.3
2018-03-24T07:56:52.973Z,22.3
2018-03-24T07:57:42.787Z,22.3
2018-03-24T07:58:32.801Z,22.3
2018-03-24T07:59:23.736Z,22.3
2018-03-24T08:00:13.761Z,22.3
2018-03-24T08:01:03.881Z,22.3
2018-03-24T08:01:53.591Z,22.3
2018-03-24T08:02:43.663Z,22.3
2018-03-24T08:03:33.717Z,22.3
2018-03-24T08:04:24.203Z,22.3
2018-03-24T08:05:13.939Z,22.3
2018-03-24T08:06:03.593Z,22.2
2018-03-24T08:06:53.673Z,22.3
2018-03-24T08:07:44.130Z,22.3
2018-03-24T08:08:33.541Z,22.2
2018-03-24T08:09:23.903Z,22.3
2018-03-24T08:10:13.450Z,22.2
2018-03-24T08:11:04.291Z,22.2
2018-03-24T08:11:54.311Z,22.2
2018-03-24T08:12:44.050Z,22.3
2018-03-24T08:13:34.143Z,22.2
2018-03-24T08:14:24.168Z,22.3
2018-03-24T08:15:14.778Z,22.2
2018-03-24T08:16:04.290Z,22.3
2018-03-24T08:16:53.230Z,22.3
2018-03-24T08:17:43.363Z,22.3
2018-03-24T08:18:34.100Z,22.2
2018-03-24T08:19:23.460Z,22.3
2018-03-24T08:20:13.811Z,22.2
2018-03-24T08:21:03.890Z,22.3
2018-03-24T08:21:54.155Z,22.2
2018-03-24T08:22:43.401Z,22.2
2018-03-24T08:23:34.046Z,22.2
2018-03-24T08:24:24.251Z,22.2
2018-03-24T08:25:14.644Z,22.2
2018-03-24T08:26:04.245Z,22.2
2018-03-24T08:26:54.235Z,22.2
2018-03-24T08:27:44.131Z,22.2
2018-03-24T08:28:34.977Z,22.2
2018-03-24T08:29:23.549Z,22.2
2018-03-24T08:30:14.295Z,22.2
2018-03-24T08:31:04.544Z,22.2
2018-03-24T08:31:54.268Z,22.1
2018-03-24T08:32:44.590Z,22.1
2018-03-24T08:33:34.824Z,22.1
2018-03-24T08:34:25.220Z,22.1
2018-03-24T08:35:14.636Z,22.1
2018-03-24T08:36:04.412Z,22.1
2018-03-24T08:36:54.358Z,22.1
2018-03-24T08:37:44.754Z,22.1
2018-03-24T08:38:33.978Z,22.1
2018-03-24T08:39:24.622Z,22.1
2018-03-24T08:40:14.702Z,22.1
2018-03-24T08:41:04.675Z,22.1
2018-03-24T08:41:54.776Z,22.1
2018-03-24T08:42:45.654Z,22.1
2018-03-24T08:43:35.999Z,22
2018-03-24T08:44:25.067Z,22
2018-03-24T08:45:15.341Z,22
2018-03-24T08:46:05.166Z,22
2018-03-24T08:46:55.412Z,22
2018-03-24T08:47:45.719Z,22
2018-03-24T08:48:35.250Z,21.9
2018-03-24T08:49:25.640Z,21.9
2018-03-24T08:50:16.071Z,21.9
2018-03-24T08:51:05.917Z,21.9
2018-03-24T08:51:55.858Z,21.9
2018-03-24T08:52:45.763Z,21.9
2018-03-24T08:53:36.649Z,21.9
2018-03-24T08:54:25.944Z,21.8
2018-03-24T08:55:16.292Z,21.8
2018-03-24T08:56:05.223Z,21.8
2018-03-24T08:56:56.825Z,21.8
2018-03-24T08:57:46.092Z,21.8
2018-03-24T08:58:36.405Z,21.8
2018-03-24T08:59:26.285Z,21.8
2018-03-24T09:00:15.945Z,21.8
2018-03-24T09:01:07.081Z,21.8
2018-03-24T09:01:56.034Z,21.8
2018-03-24T09:02:46.482Z,21.8
2018-03-24T09:03:36.245Z,21.8
2018-03-24T09:04:26.224Z,21.8
2018-03-24T09:05:16.341Z,21.8
2018-03-24T09:06:07.504Z,21.8
2018-03-24T09:06:57.353Z,21.8
2018-03-24T09:07:46.365Z,21.8
2018-03-24T09:08:36.972Z,21.8
2018-03-24T09:09:27.175Z,21.8
2018-03-24T09:10:17.202Z,21.8
2018-03-24T09:11:07.125Z,21.8
2018-03-24T09:11:57.014Z,21.8
2018-03-24T09:12:47.651Z,21.8
2018-03-24T09:13:37.303Z,21.8
2018-03-24T09:14:27.402Z,21.9
2018-03-24T09:15:18.059Z,21.8
2018-03-24T09:16:07.389Z,21.9
2018-03-24T09:16:58.025Z,21.8
2018-03-24T09:17:48.012Z,21.8
2018-03-24T09:18:38.821Z,21.8
2018-03-24T09:19:27.536Z,21.8
2018-03-24T09:20:18.956Z,21.8
2018-03-24T09:21:08.052Z,21.8
2018-03-24T09:21:57.424Z,21.8
2018-03-24T09:22:47.870Z,21.8
2018-03-24T09:23:37.614Z,21.8
2018-03-24T09:24:27.222Z,21.8
2018-03-24T09:25:17.582Z,21.8
2018-03-24T09:26:08.423Z,21.8
2018-03-24T09:26:58.535Z,21.8
2018-03-24T09:27:48.692Z,21.8
2018-03-24T09:28:38.379Z,21.8
2018-03-24T09:29:29.562Z,21.8
2018-03-24T09:30:19.351Z,21.8
2018-03-24T09:31:08.232Z,21.8
2018-03-24T09:31:58.171Z,21.8
2018-03-24T09:32:49.189Z,21.8
2018-03-24T09:33:37.622Z,21.8
2018-03-24T09:34:28.787Z,21.8
2018-03-24T09:35:19.427Z,21.8
2018-03-24T09:36:08.949Z,21.8
2018-03-24T09:36:59.017Z,21.8
2018-03-24T09:37:48.298Z,21.8
2018-03-24T09:38:39.405Z,21.8
2018-03-24T09:39:28.982Z,21.8
2018-03-24T09:40:19.722Z,21.8
2018-03-24T09:41:09.623Z,21.8
2018-03-24T09:41:59.265Z,21.8
2018-03-24T09:42:49.919Z,21.8
2018-03-24T09:43:39.376Z,21.8
2018-03-24T09:44:28.731Z,21.8
2018-03-24T09:45:19.688Z,21.8
2018-03-24T09:46:09.029Z,21.8
2018-03-24T09:46:59.301Z,21.8
2018-03-24T09:47:50.048Z,21.8
2018-03-24T09:48:38.418Z,21.8
2018-03-24T17:51:51.490Z,20
2018-03-24T17:52:42.021Z,20.1
2018-03-24T17:53:31.903Z,20.1
2018-03-24T17:54:21.676Z,20.1
2018-03-24T17:55:12.079Z,20.1
2018-03-24T17:56:01.188Z,20.1
2018-03-24T17:56:52.384Z,20.1
2018-03-24T17:57:42.043Z,20.1
2018-03-24T17:58:31.966Z,20.1
2018-03-24T17:59:22.302Z,20.1
2018-03-24T18:00:12.650Z,20.1
2018-03-24T18:01:01.757Z,20.1
2018-03-24T18:01:52.083Z,20.1
2018-03-24T18:02:41.949Z,20.1
2018-03-24T18:03:32.410Z,20.1
2018-03-24T18:04:22.807Z,20.1
2018-03-24T18:05:12.562Z,20.1
2018-03-24T18:06:02.828Z,20.1
2018-03-24T18:06:53.147Z,20.1
2018-03-24T18:07:43.100Z,20.1
2018-03-24T18:08:32.496Z,20.2
2018-03-24T18:09:23.421Z,20.2
2018-03-24T18:10:13.876Z,20.2
2018-03-24T18:11:03.278Z,20.2
2018-03-24T18:11:53.864Z,20.2
2018-03-24T18:12:44.203Z,20.2
2018-03-24T18:13:33.226Z,20.2
2018-03-24T18:14:23.580Z,20.2
2018-03-24T18:15:13.887Z,20.3
2018-03-24T18:16:04.181Z,20.3
2018-03-24T18:16:54.272Z,20.3
2018-03-24T18:17:44.046Z,20.3
2018-03-24T18:18:34.417Z,20.3
2018-03-24T18:19:24.438Z,20.3
2018-03-24T18:20:14.531Z,20.3
2018-03-24T18:21:03.728Z,20.3
2018-03-24T18:21:54.386Z,20.3
2018-03-24T18:22:44.666Z,20.3
2018-03-24T18:23:34.468Z,20.3
2018-03-24T18:24:24.530Z,20.3
2018-03-24T18:25:14.570Z,20.3
2018-03-24T18:26:04.418Z,20.3
2018-03-24T18:26:55.174Z,20.3
2018-03-24T18:27:45.008Z,20.3
2018-03-24T18:28:33.927Z,20.3
2018-03-24T18:29:23.775Z,20.3
2018-03-24T18:30:14.333Z,20.3
2018-03-24T18:31:04.970Z,20.3
2018-03-24T18:31:55.025Z,20.3
2018-03-24T18:32:45.069Z,20.3
2018-03-24T18:33:35.194Z,20.3
2018-03-24T18:34:25.208Z,20.3
2018-03-24T18:35:16.008Z,20.3
2018-03-24T18:36:03.917Z,20.3
2018-03-24T18:36:53.422Z,20.3
2018-03-24T18:37:43.952Z,20.3
2018-03-24T18:38:34.947Z,20.3
2018-03-24T18:39:25.741Z,20.3
2018-03-24T18:40:13.979Z,20.3
2018-03-24T18:41:04.328Z,20.3
2018-03-24T18:41:54.088Z,20.4
2018-03-24T18:42:44.676Z,20.4
2018-03-24T18:43:35.073Z,20.4
2018-03-24T18:44:26.197Z,20.4
2018-03-24T18:45:16.148Z,20.4
2018-03-24T18:46:06.187Z,20.4
2018-03-24T18:46:56.494Z,20.4
2018-03-24T18:47:46.637Z,20.4
2018-03-24T18:48:36.201Z,20.4
2018-03-24T18:49:26.259Z,20.4
2018-03-24T18:50:17.052Z,20.4
2018-03-24T18:51:07.056Z,20.4
2018-03-24T18:51:56.606Z,20.4
2018-03-24T18:52:46.970Z,20.4
2018-03-24T18:53:36.955Z,20.4
2018-03-24T18:54:26.619Z,20.4
2018-03-24T18:55:17.071Z,20.4
2018-03-24T18:56:07.416Z,20.4
2018-03-24T18:56:57.469Z,20.4
2018-03-24T18:57:47.511Z,20.4
2018-03-24T18:58:37.374Z,20.4
2018-03-24T18:59:27.346Z,20.4
2018-03-24T19:00:17.409Z,20.4
2018-03-24T19:01:07.529Z,20.4
2018-03-24T19:01:57.533Z,20.4
2018-03-24T19:02:47.292Z,20.4
2018-03-24T19:03:37.083Z,20.4
2018-03-24T19:04:28.019Z,20.4
2018-03-24T19:05:18.012Z,20.4
2018-03-24T19:06:08.113Z,20.4
2018-03-24T19:06:58.117Z,20.4
2018-03-24T19:07:47.998Z,20.4
2018-03-24T19:08:37.693Z,20.4
2018-03-24T19:09:27.717Z,20.4
2018-03-24T19:10:18.064Z,20.4
2018-03-24T19:11:08.180Z,20.4
2018-03-24T19:11:58.497Z,20.4
2018-03-24T19:12:48.573Z,20.4
2018-03-24T19:13:38.141Z,20.4
2018-03-24T19:14:28.712Z,20.4
2018-03-24T19:15:18.700Z,20.4
2018-03-24T19:16:08.788Z,20.5
2018-03-24T19:16:58.263Z,20.5
2018-03-24T19:17:48.604Z,20.4
2018-03-24T19:18:38.657Z,20.4
2018-03-24T19:19:29.018Z,20.5
2018-03-24T19:20:18.510Z,20.5
2018-03-24T19:21:09.125Z,20.5
2018-03-24T19:21:58.590Z,20.5
2018-03-24T19:22:48.937Z,20.5